ANZ433 NZAA-NZWN
Flight info
| Callsign | ANZ433 |
|---|---|
| Flight time | 0h 21m |
| Altitude | 32000 |
| Route | IGBAT Y506 TPAPA |
| Aircraft | A320/M-SDE3FGHIRWY/LB1 |
Departure
| Time | 2026-05-07 02:52 |
|---|---|
| Airport | Auckland International Airport (NZAA) |
Arrival
| Time | 2026-05-07 03:13 |
|---|---|
| Airport | Wellington International Airport (NZWN) |
| Time | Latitude | Longitude | Altitude | Speed | Heading |
|---|---|---|---|---|---|
| 2026-05-07 02:31 | -37.00681 | 174.79182 | 31 ft | 0 kts | 313° |
| 2026-05-07 02:44 | -37.00683 | 174.79185 | 25 ft | 3 kts | 314° |
| 2026-05-07 02:44 | -37.00703 | 174.79201 | 28 ft | 4 kts | 343° |
| 2026-05-07 02:44 | -37.00729 | 174.79212 | 28 ft | 4 kts | 344° |
| 2026-05-07 02:44 | -37.00753 | 174.79222 | 28 ft | 4 kts | 310° |
| 2026-05-07 02:45 | -37.00757 | 174.79228 | 28 ft | 0 kts | 251° |
| 2026-05-07 02:46 | -37.00761 | 174.79213 | 27 ft | 3 kts | 251° |
| 2026-05-07 02:47 | -37.00773 | 174.79168 | 25 ft | 8 kts | 251° |
| 2026-05-07 02:47 | -37.00810 | 174.79108 | 28 ft | 10 kts | 198° |
| 2026-05-07 02:47 | -37.00886 | 174.79083 | 28 ft | 13 kts | 244° |
| 2026-05-07 02:47 | -37.00914 | 174.78981 | 25 ft | 19 kts | 251° |
| 2026-05-07 02:48 | -37.00962 | 174.78807 | 25 ft | 22 kts | 251° |
| 2026-05-07 02:48 | -37.01015 | 174.78615 | 27 ft | 24 kts | 251° |
| 2026-05-07 02:48 | -37.01073 | 174.78404 | 27 ft | 27 kts | 251° |
| 2026-05-07 02:48 | -37.01137 | 174.78175 | 26 ft | 29 kts | 251° |
| 2026-05-07 02:49 | -37.01185 | 174.78002 | 28 ft | 30 kts | 251° |
| 2026-05-07 02:49 | -37.01241 | 174.77795 | 30 ft | 32 kts | 251° |
| 2026-05-07 02:49 | -37.01317 | 174.77523 | 27 ft | 34 kts | 250° |
| 2026-05-07 02:49 | -37.01395 | 174.77234 | 26 ft | 34 kts | 251° |
| 2026-05-07 02:50 | -37.01441 | 174.77114 | 28 ft | 14 kts | 217° |
| 2026-05-07 02:50 | -37.01545 | 174.77090 | 30 ft | 16 kts | 188° |
| 2026-05-07 02:50 | -37.01612 | 174.77152 | 28 ft | 6 kts | 72° |
| 2026-05-07 02:50 | -37.01612 | 174.77153 | 28 ft | 0 kts | 70° |
| 2026-05-07 02:51 | -37.01612 | 174.77154 | 26 ft | 2 kts | 71° |
| 2026-05-07 02:51 | -37.01548 | 174.77377 | 26 ft | 62 kts | 70° |
| 2026-05-07 02:51 | -37.01340 | 174.78128 | 30 ft | 118 kts | 71° |
| 2026-05-07 02:52 | -37.01026 | 174.79254 | 193 ft | 144 kts | 69° |
| 2026-05-07 02:52 | -37.00778 | 174.80380 | 1050 ft | 131 kts | 66° |
| 2026-05-07 02:52 | -37.00484 | 174.81472 | 1614 ft | 134 kts | 64° |
| 2026-05-07 02:52 | -37.00150 | 174.82625 | 1984 ft | 151 kts | 63° |
| 2026-05-07 02:53 | -36.99761 | 174.83954 | 2303 ft | 174 kts | 63° |
| 2026-05-07 02:53 | -36.99316 | 174.85481 | 2624 ft | 199 kts | 65° |
| 2026-05-07 02:53 | -36.98835 | 174.87170 | 3210 ft | 211 kts | 66° |
| 2026-05-07 02:53 | -36.98348 | 174.88919 | 3949 ft | 215 kts | 68° |
| 2026-05-07 02:54 | -36.98285 | 174.90819 | 4699 ft | 231 kts | 104° |
| 2026-05-07 02:54 | -36.99248 | 174.92466 | 5436 ft | 246 kts | 145° |
| 2026-05-07 02:54 | -37.00795 | 174.93421 | 6211 ft | 250 kts | 160° |
| 2026-05-07 02:54 | -37.02507 | 174.93642 | 6947 ft | 250 kts | 194° |
| 2026-05-07 02:55 | -37.05563 | 174.90342 | 8775 ft | 239 kts | 256° |
| 2026-05-07 02:55 | -37.07999 | 174.81383 | 10640 ft | 308 kts | 255° |
| 2026-05-07 02:55 | -37.12448 | 174.71484 | 12687 ft | 364 kts | 207° |
| 2026-05-07 02:55 | -37.22607 | 174.70718 | 15624 ft | 373 kts | 181° |
| 2026-05-07 02:56 | -37.32904 | 174.69026 | 18058 ft | 378 kts | 194° |
| 2026-05-07 02:56 | -37.43419 | 174.66640 | 20255 ft | 390 kts | 192° |
| 2026-05-07 02:56 | -37.54304 | 174.64462 | 22287 ft | 402 kts | 192° |
| 2026-05-07 02:56 | -37.65350 | 174.61477 | 24120 ft | 411 kts | 198° |
| 2026-05-07 02:57 | -37.76569 | 174.57800 | 25667 ft | 421 kts | 197° |
| 2026-05-07 02:57 | -37.88086 | 174.54228 | 27152 ft | 431 kts | 197° |
| 2026-05-07 02:57 | -37.99930 | 174.50873 | 28513 ft | 444 kts | 189° |
| 2026-05-07 02:57 | -38.12349 | 174.49185 | 29900 ft | 454 kts | 189° |
| 2026-05-07 02:58 | -38.25007 | 174.47440 | 31110 ft | 461 kts | 189° |
| 2026-05-07 02:58 | -38.32954 | 174.46330 | 32103 ft | 458 kts | 189° |
| 2026-05-07 02:58 | -38.41354 | 174.45156 | 32214 ft | 440 kts | 190° |
| 2026-05-07 02:59 | -38.65665 | 174.41731 | 32202 ft | 439 kts | 190° |
| 2026-05-07 02:59 | -38.89800 | 174.38315 | 32218 ft | 439 kts | 190° |
| 2026-05-07 03:00 | -39.01491 | 174.36656 | 32207 ft | 439 kts | 191° |
| 2026-05-07 03:00 | -39.11161 | 174.36312 | 32228 ft | 444 kts | 181° |
| 2026-05-07 03:01 | -39.35906 | 174.37710 | 32195 ft | 446 kts | 181° |
| 2026-05-07 03:01 | -39.60722 | 174.39149 | 32180 ft | 446 kts | 182° |
| 2026-05-07 03:02 | -39.85478 | 174.40585 | 30923 ft | 446 kts | 181° |
| 2026-05-07 03:02 | -39.97675 | 174.41306 | 29188 ft | 427 kts | 181° |
| 2026-05-07 03:02 | -40.09371 | 174.42006 | 27353 ft | 415 kts | 181° |
| 2026-05-07 03:03 | -40.20788 | 174.42686 | 25664 ft | 406 kts | 181° |
| 2026-05-07 03:03 | -40.32012 | 174.43339 | 23859 ft | 403 kts | 181° |
| 2026-05-07 03:03 | -40.43171 | 174.44000 | 21899 ft | 396 kts | 182° |
| 2026-05-07 03:03 | -40.54032 | 174.44653 | 20041 ft | 387 kts | 182° |
| 2026-05-07 03:04 | -40.64665 | 174.45295 | 18333 ft | 375 kts | 182° |
| 2026-05-07 03:04 | -40.74776 | 174.46229 | 16584 ft | 334 kts | 177° |
| 2026-05-07 03:04 | -40.83499 | 174.47913 | 15101 ft | 319 kts | 178° |
| 2026-05-07 03:04 | -40.92409 | 174.49500 | 13596 ft | 325 kts | 178° |
| 2026-05-07 03:05 | -41.01414 | 174.51092 | 12079 ft | 325 kts | 177° |
| 2026-05-07 03:05 | -41.10457 | 174.52742 | 10500 ft | 330 kts | 175° |
| 2026-05-07 03:05 | -41.19546 | 174.54746 | 9022 ft | 326 kts | 174° |
| 2026-05-07 03:05 | -41.28236 | 174.56638 | 8020 ft | 311 kts | 175° |
| 2026-05-07 03:06 | -41.31438 | 174.57962 | 7438 ft | 313 kts | 159° |
| 2026-05-07 03:06 | -41.33427 | 174.59134 | 6911 ft | 311 kts | 158° |
| 2026-05-07 03:06 | -41.35399 | 174.60296 | 6410 ft | 309 kts | 158° |
| 2026-05-07 03:06 | -41.37364 | 174.61448 | 5866 ft | 308 kts | 159° |
| 2026-05-07 03:07 | -41.39325 | 174.62595 | 5311 ft | 307 kts | 156° |
| 2026-05-07 03:07 | -41.41078 | 174.64054 | 5051 ft | 294 kts | 140° |
| 2026-05-07 03:07 | -41.42664 | 174.65809 | 4338 ft | 301 kts | 139° |
| 2026-05-07 03:07 | -41.44282 | 174.67619 | 3675 ft | 305 kts | 136° |
| 2026-05-07 03:08 | -41.45587 | 174.69800 | 3285 ft | 292 kts | 111° |
| 2026-05-07 03:08 | -41.46215 | 174.72156 | 3129 ft | 243 kts | 89° |
| 2026-05-07 03:08 | -41.46278 | 174.74115 | 2981 ft | 186 kts | 68° |
| 2026-05-07 03:08 | -41.46019 | 174.75642 | 2744 ft | 155 kts | 50° |
| 2026-05-07 03:09 | -41.45579 | 174.76849 | 2541 ft | 137 kts | 38° |
| 2026-05-07 03:09 | -41.45045 | 174.77813 | 2369 ft | 126 kts | 28° |
| 2026-05-07 03:09 | -41.44434 | 174.78599 | 2189 ft | 118 kts | 20° |
| 2026-05-07 03:09 | -41.43764 | 174.79217 | 2048 ft | 118 kts | 16° |
| 2026-05-07 03:10 | -41.43019 | 174.79691 | 1892 ft | 119 kts | 9° |
| 2026-05-07 03:10 | -41.42215 | 174.79993 | 1733 ft | 121 kts | 2° |
| 2026-05-07 03:10 | -41.41359 | 174.80110 | 1572 ft | 124 kts | 356° |
| 2026-05-07 03:10 | -41.40487 | 174.80165 | 1411 ft | 127 kts | 359° |
| 2026-05-07 03:11 | -41.39591 | 174.80225 | 1227 ft | 130 kts | 359° |
| 2026-05-07 03:11 | -41.38691 | 174.80285 | 1058 ft | 128 kts | 0° |
| 2026-05-07 03:11 | -41.37790 | 174.80345 | 899 ft | 129 kts | 1° |
| 2026-05-07 03:11 | -41.36865 | 174.80399 | 704 ft | 134 kts | 1° |
| 2026-05-07 03:12 | -41.35963 | 174.80446 | 544 ft | 130 kts | 4° |
| 2026-05-07 03:12 | -41.35068 | 174.80506 | 378 ft | 130 kts | 2° |
| 2026-05-07 03:12 | -41.34162 | 174.80578 | 216 ft | 130 kts | 5° |
| 2026-05-07 03:12 | -41.33276 | 174.80647 | 40 ft | 125 kts | 2° |
| 2026-05-07 03:13 | -41.32553 | 174.80697 | 30 ft | 72 kts | 3° |
| 2026-05-07 03:13 | -41.32308 | 174.80715 | 38 ft | 19 kts | 3° |
| 2026-05-07 03:13 | -41.32178 | 174.80723 | 42 ft | 18 kts | 2° |
| 2026-05-07 03:13 | -41.32055 | 174.80729 | 48 ft | 17 kts | 5° |
| 2026-05-07 03:14 | -41.31976 | 174.80738 | 51 ft | 17 kts | 3° |
| 2026-05-07 03:14 | -41.31897 | 174.80842 | 51 ft | 9 kts | 111° |
| 2026-05-07 03:14 | -41.31906 | 174.80857 | 51 ft | 5 kts | 134° |
| 2026-05-07 03:15 | -41.31992 | 174.80864 | 49 ft | 20 kts | 184° |
| 2026-05-07 03:15 | -41.32149 | 174.80855 | 44 ft | 25 kts | 183° |
| 2026-05-07 03:15 | -41.32344 | 174.80842 | 38 ft | 31 kts | 182° |
| 2026-05-07 03:15 | -41.32577 | 174.80825 | 29 ft | 36 kts | 181° |
| 2026-05-07 03:16 | -41.32701 | 174.80820 | 26 ft | 14 kts | 169° |
| 2026-05-07 03:16 | -41.32711 | 174.80893 | 26 ft | 8 kts | 81° |
| 2026-05-07 03:16 | -41.32723 | 174.80932 | 26 ft | 2 kts | 155° |
| 2026-05-07 03:16 | -41.32746 | 174.80955 | 26 ft | 6 kts | 141° |
| 2026-05-07 03:17 | -41.32770 | 174.80980 | 26 ft | 0 kts | 142° |